Time;durP1;ratioP1;P1;durP2;ratioP2;P2;SDS_P1;SDS_P2;PMS_P1;PMS_P2;Temp;Humidity;BMP_temperature;BMP_pressure;BME280_temperature;BME280_humidity;BME280_pressure;Samples;Min_cycle;Max_cycle;Signal;HPM_P1;HPM_P2
2022/01/31 00:00:08;;;;;;;1.30;1.10;;;;;;;3.00;82.12;96633.06;5036893;28;20611;-68
2022/01/31 00:02:35;;;;;;;1.60;1.50;;;;;;;3.02;81.49;96623.38;5035846;28;20222;-67
2022/01/31 00:05:01;;;;;;;3.33;1.80;;;;;;;2.82;82.41;96611.13;5036567;28;20208;-67
2022/01/31 00:07:29;;;;;;;1.80;1.70;;;;;;;2.94;81.86;96609.31;5035982;28;20483;-68
2022/01/31 00:09:56;;;;;;;4.77;1.10;;;;;;;2.87;81.99;96595.16;5036242;28;20212;-68
2022/01/31 00:12:26;;;;;;;1.37;1.17;;;;;;;2.77;81.82;96581.22;5035966;28;20206;-68
2022/01/31 00:14:54;;;;;;;1.40;1.30;;;;;;;3.01;81.44;96584.47;5035904;28;20206;-68
2022/01/31 00:17:21;;;;;;;1.53;1.43;;;;;;;2.72;82.63;96589.38;5035956;28;20236;-67
2022/01/31 00:19:47;;;;;;;3.73;2.23;;;;;;;2.92;81.72;96601.63;5036144;28;20216;-67
2022/01/31 00:22:15;;;;;;;1.07;0.97;;;;;;;2.97;82.48;96607.31;5035661;28;20228;-68
2022/01/31 00:24:43;;;;;;;3.07;1.47;;;;;;;3.17;82.44;96601.31;5035906;28;20686;-67
2022/01/31 00:27:10;;;;;;;2.97;1.03;;;;;;;2.97;82.47;96591.69;5036041;28;20206;-67
2022/01/31 00:29:38;;;;;;;12.43;2.43;;;;;;;3.09;82.54;96598.50;5036244;28;20213;-68
2022/01/31 00:32:05;;;;;;;2.63;1.33;;;;;;;3.27;81.83;96584.84;5036020;28;20208;-68
2022/01/31 00:34:32;;;;;;;2.37;2.17;;;;;;;3.31;81.45;96577.59;5035555;28;20509;-67
2022/01/31 00:36:58;;;;;;;5.17;2.03;;;;;;;3.06;82.67;96583.16;5036188;28;20205;-68
2022/01/31 00:39:25;;;;;;;2.10;1.53;;;;;;;3.22;81.93;96579.19;5035983;28;20229;-68
2022/01/31 00:41:53;;;;;;;2.40;1.30;;;;;;;3.30;82.11;96561.16;5036129;28;20204;-67
2022/01/31 00:44:24;;;;;;;4.30;1.77;;;;;;;3.06;82.53;96557.09;5036164;28;20205;-67
2022/01/31 00:46:55;;;;;;;2.17;1.27;;;;;;;2.93;83.22;96566.00;5036360;28;20216;-68
2022/01/31 00:49:35;;;;;;;1.50;1.40;;;;;;;3.23;82.68;96551.34;5035446;28;20225;-67
2022/01/31 00:52:04;;;;;;;2.90;1.67;;;;;;;3.33;82.92;96549.66;5035250;28;20629;-67
2022/01/31 00:54:30;;;;;;;1.63;0.90;;;;;;;3.17;82.90;96538.81;5035607;28;20567;-68
2022/01/31 00:56:58;;;;;;;7.40;1.53;;;;;;;3.52;82.17;96528.97;5035699;28;20204;-68
2022/01/31 00:59:26;;;;;;;8.07;1.57;;;;;;;3.48;82.04;96522.34;5035549;28;20224;-67
2022/01/31 01:01:52;;;;;;;2.77;1.10;;;;;;;3.25;82.50;96510.41;5036091;28;20208;-68
2022/01/31 01:04:19;;;;;;;26.63;1.77;;;;;;;3.27;83.08;96514.53;5034930;28;20432;-68
2022/01/31 01:06:45;;;;;;;1.63;1.50;;;;;;;3.38;82.43;96511.03;5036975;28;20215;-67
2022/01/31 01:09:12;;;;;;;5.73;2.53;;;;;;;3.44;82.24;96505.34;5039674;28;20724;-67
2022/01/31 01:11:38;;;;;;;1.10;1.03;;;;;;;3.53;81.77;96499.34;5039901;28;20240;-67
2022/01/31 01:14:06;;;;;;;1.57;1.33;;;;;;;3.75;82.03;96503.44;5039282;28;20197;-67
2022/01/31 01:16:33;;;;;;;1.17;0.97;;;;;;;3.53;82.14;96507.16;5039610;28;20669;-67
2022/01/31 01:19:00;;;;;;;1.33;1.23;;;;;;;3.58;82.03;96489.34;5039749;28;20220;-67
2022/01/31 01:21:26;;;;;;;3.30;1.53;;;;;;;3.58;82.08;96484.13;5039510;28;20220;-68
2022/01/31 01:23:53;;;;;;;12.17;2.43;;;;;;;3.64;81.79;96482.69;5038536;28;20283;-68
2022/01/31 01:26:19;;;;;;;4.60;2.43;;;;;;;3.67;81.89;96471.19;5039851;28;20205;-67
2022/01/31 01:28:46;;;;;;;1.33;1.03;;;;;;;3.69;82.09;96457.06;5039340;28;20247;-68
2022/01/31 01:31:14;;;;;;;2.60;1.47;;;;;;;3.70;82.62;96466.53;5039276;28;20294;-67
2022/01/31 01:33:41;;;;;;;5.70;1.23;;;;;;;3.50;83.14;96458.75;5038760;28;20208;-67
2022/01/31 01:36:08;;;;;;;2.83;1.90;;;;;;;3.71;82.36;96436.09;5039617;28;20259;-67
2022/01/31 01:38:35;;;;;;;10.33;2.40;;;;;;;3.45;83.27;96429.66;5038946;28;20224;-67
2022/01/31 01:41:03;;;;;;;5.20;1.77;;;;;;;3.50;83.87;96411.03;5038873;28;20211;-67
2022/01/31 01:43:30;;;;;;;4.30;2.17;;;;;;;3.49;84.42;96404.16;5038682;28;20351;-67
2022/01/31 01:45:58;;;;;;;1.50;1.40;;;;;;;3.50;85.36;96400.59;5039359;28;20671;-67
2022/01/31 01:48:26;;;;;;;3.93;2.50;;;;;;;3.57;85.08;96392.13;5038596;28;20917;-67
2022/01/31 01:50:53;;;;;;;0.90;0.90;;;;;;;3.62;84.43;96383.94;5039044;28;20209;-68
2022/01/31 01:53:20;;;;;;;5.27;1.70;;;;;;;3.50;85.23;96387.56;5038005;28;20209;-68
2022/01/31 01:55:47;;;;;;;3.37;1.40;;;;;;;3.53;84.65;96382.94;5038777;28;20208;-67
2022/01/31 01:58:16;;;;;;;2.17;0.90;;;;;;;3.76;83.96;96387.00;5039444;28;20253;-68
2022/01/31 02:00:51;;;;;;;2.20;1.70;;;;;;;3.87;83.68;96363.44;5038276;28;20635;-67
2022/01/31 02:03:19;;;;;;;2.03;1.33;;;;;;;3.74;84.33;96374.13;5037900;28;20592;-67
2022/01/31 02:05:48;;;;;;;2.57;1.37;;;;;;;3.93;84.03;96358.50;5038618;28;20205;-67
2022/01/31 02:08:17;;;;;;;4.50;2.07;;;;;;;4.00;83.52;96349.19;5039176;28;20213;-67
2022/01/31 02:10:44;;;;;;;10.07;1.67;;;;;;;3.96;83.86;96345.22;5035322;28;20278;-68
2022/01/31 02:13:11;;;;;;;2.40;1.57;;;;;;;3.67;84.44;96343.50;5037844;28;20895;-67
2022/01/31 02:15:38;;;;;;;2.37;1.60;;;;;;;3.62;85.04;96334.44;5038419;28;20209;-68
2022/01/31 02:18:06;;;;;;;15.37;1.50;;;;;;;3.90;84.71;96331.91;5037370;28;20256;-67
2022/01/31 02:20:37;;;;;;;1.63;1.40;;;;;;;3.99;84.35;96318.06;5038104;28;20216;-67
2022/01/31 02:23:06;;;;;;;6.77;3.07;;;;;;;3.78;84.70;96314.72;5037825;28;20224;-67
2022/01/31 02:25:33;;;;;;;13.47;1.30;;;;;;;3.64;85.03;96294.28;5037884;28;20205;-67
2022/01/31 02:27:59;;;;;;;5.63;1.93;;;;;;;3.66;84.96;96271.50;5038417;28;20231;-68
2022/01/31 02:30:25;;;;;;;2.63;1.77;;;;;;;3.67;84.99;96267.94;5038587;28;20209;-67
2022/01/31 02:32:52;;;;;;;1.47;1.37;;;;;;;3.66;85.18;96263.69;5037548;28;21114;-67
2022/01/31 02:35:18;;;;;;;3.43;1.43;;;;;;;3.78;84.82;96276.47;5038675;28;20689;-68
2022/01/31 02:37:46;;;;;;;6.20;2.83;;;;;;;3.95;84.85;96265.34;5038484;28;20235;-67
2022/01/31 02:40:13;;;;;;;4.10;2.27;;;;;;;3.78;84.89;96268.66;5039008;28;20200;-68
2022/01/31 02:42:39;;;;;;;9.97;3.03;;;;;;;3.70;85.26;96257.25;5037844;28;20208;-68
2022/01/31 02:45:07;;;;;;;1.40;1.30;;;;;;;3.72;85.97;96232.69;5038492;28;20243;-67
2022/01/31 02:47:38;;;;;;;2.27;1.67;;;;;;;3.82;85.09;96224.91;5038687;28;20239;-67
2022/01/31 02:50:08;;;;;;;5.77;2.70;;;;;;;3.57;86.21;96207.19;5038452;28;20266;-67
2022/01/31 02:52:36;;;;;;;6.23;2.47;;;;;;;3.58;86.20;96200.19;5038099;28;20212;-67
2022/01/31 02:55:05;;;;;;;2.80;1.63;;;;;;;3.82;85.98;96202.25;5038674;28;20201;-68
2022/01/31 02:57:32;;;;;;;1.77;1.63;;;;;;;3.82;85.83;96186.63;5038368;28;20239;-67
2022/01/31 02:59:58;;;;;;;2.17;1.40;;;;;;;3.47;86.73;96177.69;5038798;28;20578;-68
2022/01/31 03:02:25;;;;;;;2.17;1.43;;;;;;;3.37;87.18;96160.41;5037662;28;20212;-67
2022/01/31 03:04:51;;;;;;;1.37;1.27;;;;;;;3.63;86.92;96138.91;5038041;28;20224;-67
2022/01/31 03:07:18;;;;;;;3.03;0.93;;;;;;;3.51;87.19;96153.00;5038592;28;20213;-67
2022/01/31 03:09:44;;;;;;;1.77;1.67;;;;;;;3.67;86.74;96166.31;5036032;28;20215;-67
2022/01/31 03:12:13;;;;;;;9.13;1.77;;;;;;;3.86;86.82;96181.97;5037855;28;20197;-67
2022/01/31 03:14:42;;;;;;;2.83;1.17;;;;;;;3.38;87.49;96175.09;5037858;28;20205;-67
2022/01/31 03:17:09;;;;;;;1.63;0.77;;;;;;;3.12;90.23;96179.16;5038084;28;20292;-67
2022/01/31 03:19:38;;;;;;;6.63;1.57;;;;;;;3.70;87.49;96153.84;5037856;28;20209;-67
2022/01/31 03:22:04;;;;;;;2.50;1.70;;;;;;;3.59;88.20;96145.34;5037305;28;20724;-67
2022/01/31 03:24:31;;;;;;;2.17;1.67;;;;;;;3.65;87.22;96161.25;5037545;28;20236;-67
2022/01/31 03:26:58;;;;;;;3.27;1.17;;;;;;;3.52;88.26;96151.25;5037662;28;20203;-67
2022/01/31 03:29:25;;;;;;;2.57;1.23;;;;;;;3.54;88.30;96157.13;5037050;28;20224;-67
2022/01/31 03:31:52;;;;;;;3.20;1.77;;;;;;;3.60;88.30;96146.16;5038102;28;20568;-67
2022/01/31 03:34:19;;;;;;;2.30;1.47;;;;;;;3.58;88.59;96142.84;5036974;28;20212;-67
2022/01/31 03:36:45;;;;;;;19.70;1.47;;;;;;;3.71;87.30;96132.03;5037736;28;20213;-68
2022/01/31 03:39:12;;;;;;;12.07;1.87;;;;;;;3.76;87.26;96126.41;5037758;28;20220;-67
2022/01/31 03:41:38;;;;;;;0.70;0.70;;;;;;;3.69;87.29;96115.72;5037398;28;20208;-68
2022/01/31 03:44:05;;;;;;;3.67;1.83;;;;;;;3.88;86.50;96097.47;5036490;28;20227;-68
2022/01/31 03:46:34;;;;;;;4.87;1.90;;;;;;;3.75;87.68;96083.88;5035310;28;20205;-68
2022/01/31 03:49:01;;;;;;;1.70;1.17;;;;;;;3.50;87.68;96077.63;5037394;28;21208;-68
2022/01/31 03:51:27;;;;;;;8.60;3.70;;;;;;;3.61;87.45;96074.88;5037149;28;20704;-68
2022/01/31 03:53:54;;;;;;;16.27;4.33;;;;;;;3.67;87.03;96081.16;5036601;28;20202;-68
2022/01/31 03:56:20;;;;;;;5.83;2.50;;;;;;;3.71;86.92;96072.09;5037698;28;20255;-68
2022/01/31 03:58:46;;;;;;;2.83;2.00;;;;;;;3.73;87.45;96069.38;5036829;28;20967;-67
2022/01/31 04:01:13;;;;;;;2.97;1.93;;;;;;;3.95;86.45;96049.00;5037225;28;20205;-68
2022/01/31 04:03:41;;;;;;;7.43;3.30;;;;;;;3.75;87.03;96036.97;5036407;28;20228;-68
2022/01/31 04:06:07;;;;;;;2.03;1.77;;;;;;;3.79;86.30;96027.94;5036883;28;20209;-67
2022/01/31 04:08:34;;;;;;;5.53;1.90;;;;;;;3.75;86.75;96036.97;5037107;28;20232;-68
2022/01/31 04:11:00;;;;;;;5.70;2.80;;;;;;;3.74;87.04;96035.38;5034681;28;20247;-68
2022/01/31 04:13:27;;;;;;;1.90;1.30;;;;;;;3.51;88.08;96027.19;5036171;28;20266;-68
2022/01/31 04:15:54;;;;;;;3.97;1.53;;;;;;;3.79;86.89;96017.53;5037148;28;20251;-68
2022/01/31 04:18:20;;;;;;;6.23;2.57;;;;;;;3.92;86.37;95997.19;5037700;28;20221;-68
2022/01/31 04:20:48;;;;;;;5.23;1.50;;;;;;;3.95;86.66;95986.47;5036872;28;20219;-67
2022/01/31 04:23:17;;;;;;;7.00;1.53;;;;;;;3.68;87.42;95994.22;5036111;28;20204;-68
2022/01/31 04:25:46;;;;;;;2.30;0.77;;;;;;;3.39;87.83;96018.69;5037342;28;20776;-68
2022/01/31 04:28:20;;;;;;;3.10;1.50;;;;;;;3.78;87.28;96013.28;5037228;28;20225;-68
2022/01/31 04:30:53;;;;;;;3.00;2.40;;;;;;;3.67;88.10;96013.41;5036383;28;20201;-68
2022/01/31 04:33:20;;;;;;;0.60;0.60;;;;;;;3.53;87.71;96031.28;5036025;28;20741;-67
2022/01/31 04:35:48;;;;;;;3.40;1.63;;;;;;;3.84;87.23;96004.88;5036591;28;20708;-67
2022/01/31 04:38:14;;;;;;;1.07;0.77;;;;;;;3.67;87.73;95997.78;5036747;28;21082;-68
2022/01/31 04:40:41;;;;;;;2.10;1.40;;;;;;;3.85;87.02;95990.88;5036318;28;20208;-67
2022/01/31 04:43:07;;;;;;;1.87;1.40;;;;;;;3.65;87.75;95993.69;5035757;28;20208;-67
2022/01/31 04:45:34;;;;;;;1.33;1.23;;;;;;;3.45;88.35;96002.50;5036635;28;20239;-67
2022/01/31 04:48:00;;;;;;;1.90;0.90;;;;;;;3.54;88.02;96011.25;5036373;28;20219;-67
2022/01/31 04:50:27;;;;;;;1.57;1.40;;;;;;;3.67;87.89;95992.56;5036852;28;20221;-67
2022/01/31 04:52:54;;;;;;;0.83;0.80;;;;;;;3.72;88.51;95985.16;5036027;28;20611;-68
2022/01/31 04:55:21;;;;;;;3.20;2.20;;;;;;;3.61;88.27;95978.50;5036518;28;20209;-67
2022/01/31 04:57:47;;;;;;;2.50;1.30;;;;;;;3.47;88.70;95978.94;5036551;28;20348;-67
2022/01/31 05:00:14;;;;;;;1.90;1.33;;;;;;;3.59;88.31;95983.00;5036759;28;20201;-67
2022/01/31 05:02:41;;;;;;;7.40;1.33;;;;;;;3.73;87.83;95975.59;5035628;28;20209;-66
2022/01/31 05:05:08;;;;;;;0.60;0.60;;;;;;;3.76;87.89;95968.28;5036212;28;20270;-67
2022/01/31 05:07:34;;;;;;;1.23;0.77;;;;;;;3.53;88.40;95970.56;5036703;28;20247;-67
2022/01/31 05:10:02;;;;;;;4.30;2.43;;;;;;;3.71;88.38;95959.25;5033517;28;20208;-67
2022/01/31 05:12:28;;;;;;;1.07;1.00;;;;;;;3.42;88.52;95953.28;5036024;28;20201;-67
2022/01/31 05:14:55;;;;;;;2.43;1.27;;;;;;;3.60;88.77;95948.19;5036580;28;20211;-67
2022/01/31 05:17:21;;;;;;;5.57;2.27;;;;;;;3.71;88.07;95941.81;5035901;28;20217;-67
2022/01/31 05:19:48;;;;;;;0.40;0.40;;;;;;;3.40;89.16;95947.44;5036359;28;20224;-67
2022/01/31 05:22:14;;;;;;;0.90;0.90;;;;;;;3.67;88.18;95929.25;5035955;28;20258;-67
2022/01/31 05:24:41;;;;;;;2.00;1.80;;;;;;;3.63;88.34;95922.69;5035980;28;20232;-67
2022/01/31 05:27:08;;;;;;;11.73;2.27;;;;;;;3.99;87.70;95924.44;5036251;28;20197;-67
2022/01/31 05:29:35;;;;;;;2.03;1.17;;;;;;;3.62;88.09;95921.84;5036935;28;20226;-67
2022/01/31 05:32:01;;;;;;;8.27;1.40;;;;;;;3.85;87.34;95915.31;5035993;28;20727;-67
2022/01/31 05:34:28;;;;;;;1.33;1.23;;;;;;;3.68;87.69;95912.66;5035563;28;20670;-67
2022/01/31 05:36:55;;;;;;;1.97;0.87;;;;;;;3.55;88.37;95913.94;5036032;28;20579;-67
2022/01/31 05:39:23;;;;;;;2.80;1.50;;;;;;;3.75;87.41;95905.88;5036199;28;20231;-67
2022/01/31 05:41:51;;;;;;;2.77;1.53;;;;;;;3.71;87.00;95884.50;5035668;28;20209;-67
2022/01/31 05:44:21;;;;;;;3.80;2.07;;;;;;;3.96;86.69;95873.41;5035503;28;20718;-67
2022/01/31 05:46:48;;;;;;;1.40;0.97;;;;;;;3.62;87.44;95872.34;5035939;28;20214;-67
2022/01/31 05:49:14;;;;;;;0.77;0.70;;;;;;;3.80;86.89;95867.19;5035973;28;20707;-67
2022/01/31 05:51:49;;;;;;;1.33;0.97;;;;;;;3.95;87.12;95852.72;5036217;28;20202;-67
2022/01/31 05:54:16;;;;;;;0.83;0.83;;;;;;;3.76;86.56;95855.44;5039279;28;20196;-67
2022/01/31 05:56:42;;;;;;;2.73;1.33;;;;;;;3.81;86.14;95853.22;5039210;28;21056;-67
2022/01/31 05:59:09;;;;;;;1.43;1.00;;;;;;;3.61;86.40;95840.44;5039713;28;20224;-67
2022/01/31 06:01:39;;;;;;;3.97;2.17;;;;;;;4.02;85.46;95828.53;5039276;28;20550;-68
2022/01/31 06:04:05;;;;;;;3.17;1.57;;;;;;;3.96;84.83;95823.06;5038829;28;20232;-67
2022/01/31 06:06:32;;;;;;;2.37;1.23;;;;;;;3.90;84.42;95828.88;5039335;28;20205;-67
2022/01/31 06:08:58;;;;;;;2.63;1.63;;;;;;;3.87;84.35;95808.31;5039346;28;20796;-67
2022/01/31 06:11:26;;;;;;;5.63;2.03;;;;;;;4.09;83.37;95790.47;5035953;28;20205;-67
2022/01/31 06:13:55;;;;;;;5.80;1.30;;;;;;;3.88;82.87;95786.50;5038502;28;20208;-67
2022/01/31 06:16:21;;;;;;;8.23;1.27;;;;;;;4.14;82.33;95785.63;5039328;28;20555;-67
2022/01/31 06:18:49;;;;;;;0.83;0.83;;;;;;;4.36;82.22;95777.34;5039130;28;20983;-67
2022/01/31 06:21:15;;;;;;;3.03;1.50;;;;;;;4.08;82.44;95778.38;5038751;28;20216;-67
2022/01/31 06:23:42;;;;;;;4.23;2.80;;;;;;;4.19;81.75;95775.56;5038597;28;20205;-67
2022/01/31 06:26:09;;;;;;;2.13;1.37;;;;;;;3.91;82.54;95770.59;5039422;28;20649;-67
2022/01/31 06:28:35;;;;;;;0.57;0.57;;;;;;;4.15;81.56;95768.19;5038492;28;20270;-67
2022/01/31 06:31:01;;;;;;;2.33;1.73;;;;;;;4.30;81.79;95762.28;5039383;28;20201;-67
2022/01/31 06:33:28;;;;;;;1.30;0.77;;;;;;;4.09;81.60;95759.19;5038291;28;20212;-67
2022/01/31 06:35:56;;;;;;;3.73;1.27;;;;;;;4.27;81.87;95763.41;5038483;28;20208;-67
2022/01/31 06:38:23;;;;;;;0.80;0.80;;;;;;;4.18;81.81;95752.25;5038722;28;20236;-67
2022/01/31 06:40:50;;;;;;;3.60;1.80;;;;;;;4.24;81.95;95755.88;5039703;28;20212;-67
2022/01/31 06:43:16;;;;;;;8.90;1.60;;;;;;;4.29;81.37;95750.25;5037028;28;20193;-67
2022/01/31 06:45:43;;;;;;;4.67;1.60;;;;;;;4.40;81.77;95747.38;5038750;28;20220;-66
2022/01/31 06:48:09;;;;;;;1.07;0.97;;;;;;;4.13;81.58;95721.41;5040663;28;20723;-68
2022/01/31 06:50:35;;;;;;;3.40;0.77;;;;;;;4.17;81.83;95725.34;5040821;28;20243;-67
2022/01/31 06:53:05;;;;;;;1.60;0.60;;;;;;;4.16;81.88;95717.69;5039248;28;20242;-68
2022/01/31 06:55:33;;;;;;;1.00;0.80;;;;;;;4.28;81.65;95710.28;5040574;28;20197;-66
2022/01/31 06:58:00;;;;;;;0.80;0.80;;;;;;;4.29;82.00;95692.88;5042708;28;20220;-68
2022/01/31 07:00:27;;;;;;;1.13;1.00;;;;;;;4.27;81.85;95679.16;5040487;28;20209;-67
2022/01/31 07:02:54;;;;;;;1.37;0.77;;;;;;;4.28;81.72;95686.00;5037888;28;20212;-71
2022/01/31 07:05:21;;;;;;;1.77;1.47;;;;;;;4.33;82.25;95683.75;5038151;28;20239;-67
2022/01/31 07:07:48;;;;;;;1.00;0.83;;;;;;;4.42;82.03;95683.66;5037875;28;20236;-67
2022/01/31 07:10:16;;;;;;;0.80;0.60;;;;;;;4.49;81.72;95678.63;5035828;28;20204;-68
2022/01/31 07:12:49;;;;;;;3.53;1.70;;;;;;;4.25;82.65;95666.28;5037808;28;20213;-69
2022/01/31 07:15:15;;;;;;;4.37;2.33;;;;;;;4.39;82.21;95657.88;5037545;28;20201;-71
2022/01/31 07:17:44;;;;;;;1.17;0.90;;;;;;;4.27;83.67;95655.69;5038596;28;20278;-70
2022/01/31 07:20:19;;;;;;;1.90;0.97;;;;;;;4.60;83.59;95644.47;5038316;28;20213;-67
2022/01/31 07:22:52;;;;;;;0.80;0.80;;;;;;;4.24;85.63;95645.56;5037264;28;20215;-71
2022/01/31 07:25:34;;;;;;;8.77;1.17;;;;;;;4.37;86.18;95644.16;5038367;28;20224;-68
2022/01/31 07:28:01;;;;;;;5.83;1.40;;;;;;;4.12;87.18;95638.94;5038099;28;20234;-68
2022/01/31 07:30:27;;;;;;;1.03;0.73;;;;;;;4.12;88.38;95640.75;5037837;28;20213;-69
2022/01/31 07:32:54;;;;;;;1.90;1.43;;;;;;;4.13;89.28;95635.38;5037437;28;20205;-68
2022/01/31 07:35:20;;;;;;;1.40;1.10;;;;;;;4.20;90.29;95630.38;5038079;28;20205;-68
2022/01/31 07:37:47;;;;;;;1.10;1.00;;;;;;;4.31;90.28;95628.31;5037664;28;20255;-68
2022/01/31 07:40:14;;;;;;;2.00;1.23;;;;;;;4.20;90.89;95635.59;5038318;28;20209;-68
2022/01/31 07:42:42;;;;;;;5.90;1.77;;;;;;;4.32;91.22;95616.94;5037160;28;20208;-68
2022/01/31 07:45:09;;;;;;;0.90;0.73;;;;;;;4.31;91.59;95630.94;5037174;28;20220;-68
2022/01/31 07:47:36;;;;;;;0.40;0.40;;;;;;;4.29;91.79;95622.47;5037726;28;20225;-68
2022/01/31 07:50:04;;;;;;;1.50;1.40;;;;;;;4.29;92.59;95625.88;5037942;28;20197;-68
2022/01/31 07:52:30;;;;;;;1.27;1.00;;;;;;;4.31;92.22;95636.94;5036804;28;20296;-68
2022/01/31 07:54:57;;;;;;;2.60;1.20;;;;;;;4.28;92.48;95626.84;5037537;28;20204;-68
2022/01/31 07:57:25;;;;;;;2.73;1.40;;;;;;;4.33;93.24;95637.63;5037381;28;20666;-68
2022/01/31 07:59:53;;;;;;;6.63;1.33;;;;;;;4.37;93.42;95632.94;5037010;28;20595;-68
2022/01/31 08:02:20;;;;;;;0.83;0.80;;;;;;;4.31;93.73;95641.38;5036748;28;20201;-68
2022/01/31 08:04:46;;;;;;;0.77;0.77;;;;;;;4.17;95.06;95628.06;5037444;28;20709;-68
2022/01/31 08:07:13;;;;;;;9.27;1.63;;;;;;;4.33;94.94;95648.06;5037223;28;20193;-68
2022/01/31 08:09:40;;;;;;;1.70;0.73;;;;;;;4.26;95.89;95636.63;5034633;28;20624;-68
2022/01/31 08:12:07;;;;;;;4.73;1.03;;;;;;;4.23;97.41;95641.31;5036915;28;20658;-68
2022/01/31 08:14:34;;;;;;;4.13;1.40;;;;;;;4.10;97.68;95637.47;5036978;28;20251;-68
2022/01/31 08:17:02;;;;;;;6.30;1.23;;;;;;;4.25;98.50;95621.09;5035994;28;20731;-68
2022/01/31 08:19:28;;;;;;;10.30;1.23;;;;;;;4.06;99.20;95636.97;5036819;28;20240;-68
2022/01/31 08:21:55;;;;;;;4.87;2.00;;;;;;;4.19;98.83;95629.56;5036893;28;20209;-68
2022/01/31 08:24:21;;;;;;;7.53;0.93;;;;;;;4.17;99.50;95631.50;5036078;28;20314;-68
2022/01/31 08:26:48;;;;;;;1.53;1.10;;;;;;;4.13;99.14;95645.81;5036759;28;20205;-68
2022/01/31 08:29:21;;;;;;;2.23;1.03;;;;;;;4.18;99.72;95643.56;5036822;28;20225;-68
2022/01/31 08:31:52;;;;;;;2.93;1.30;;;;;;;4.20;99.60;95639.03;5035975;28;20765;-68
2022/01/31 08:35:47;;;;;;;1.57;1.10;;;;;;;4.27;99.76;95627.81;5036292;28;20200;-68
2022/01/31 08:37:13;;;;;;;6.83;1.20;;;;;;;4.13;100.00;95632.78;5035985;28;20244;-68
2022/01/31 08:39:40;;;;;;;4.33;1.20;;;;;;;4.22;100.00;95631.84;5036388;28;20286;-68
2022/01/31 08:42:07;;;;;;;0.63;0.63;;;;;;;4.10;100.00;95640.91;5036703;28;20200;-68
2022/01/31 08:44:33;;;;;;;0.83;0.83;;;;;;;4.07;100.00;95633.38;5036645;28;20249;-68
2022/01/31 08:47:00;;;;;;;3.47;1.73;;;;;;;4.14;100.00;95630.97;5036362;28;20208;-68
2022/01/31 08:49:29;;;;;;;1.27;1.10;;;;;;;4.12;100.00;95638.94;5036516;28;20228;-68
2022/01/31 08:51:56;;;;;;;1.53;0.90;;;;;;;3.95;100.00;95652.84;5036412;28;20208;-68
2022/01/31 08:54:23;;;;;;;2.27;1.43;;;;;;;4.10;100.00;95627.03;5035913;28;20197;-68
2022/01/31 08:56:49;;;;;;;2.00;1.40;;;;;;;4.00;100.00;95639.38;5036471;28;20201;-68
2022/01/31 08:59:22;;;;;;;2.37;1.43;;;;;;;4.29;100.00;95633.69;5036275;28;20950;-68
2022/01/31 09:01:52;;;;;;;4.03;1.90;;;;;;;4.08;100.00;95632.41;5035591;28;20237;-68
2022/01/31 09:04:32;;;;;;;5.13;1.40;;;;;;;4.01;100.00;95652.25;5035694;28;20290;-68
2022/01/31 09:07:00;;;;;;;1.90;1.43;;;;;;;4.10;100.00;95640.91;5036087;28;20780;-68
2022/01/31 09:09:27;;;;;;;3.40;1.60;;;;;;;4.03;100.00;95634.66;5033713;28;20228;-68
2022/01/31 09:11:56;;;;;;;1.67;0.97;;;;;;;3.98;100.00;95641.28;5036485;28;20213;-68
2022/01/31 09:14:23;;;;;;;0.80;0.53;;;;;;;3.86;100.00;95648.53;5035689;28;20274;-68
2022/01/31 09:16:50;;;;;;;0.90;0.67;;;;;;;3.93;100.00;95659.16;5036196;28;20208;-68
2022/01/31 09:19:16;;;;;;;2.40;1.27;;;;;;;4.14;100.00;95655.28;5036148;28;20626;-68
2022/01/31 09:21:42;;;;;;;1.53;1.00;;;;;;;4.11;100.00;95646.94;5036173;28;20234;-69
2022/01/31 09:24:10;;;;;;;1.23;1.13;;;;;;;4.24;100.00;95641.16;5035561;28;20205;-68
2022/01/31 09:26:37;;;;;;;2.70;1.23;;;;;;;4.17;100.00;95641.13;5036023;28;20229;-68
2022/01/31 09:29:04;;;;;;;1.23;0.90;;;;;;;4.20;100.00;95646.84;5039649;28;20255;-69
2022/01/31 09:31:30;;;;;;;1.70;1.00;;;;;;;4.11;100.00;95644.31;5039969;28;20251;-68
2022/01/31 09:33:57;;;;;;;4.93;1.70;;;;;;;4.03;100.00;95639.88;5039134;28;20205;-68
2022/01/31 09:36:23;;;;;;;0.70;0.70;;;;;;;3.99;100.00;95633.31;5039967;28;20251;-68
2022/01/31 09:38:50;;;;;;;5.33;1.57;;;;;;;4.06;100.00;95623.94;5039858;28;20595;-69
2022/01/31 09:41:22;;;;;;;0.73;0.67;;;;;;;4.17;100.00;95628.88;5040389;28;20220;-69
2022/01/31 09:44:03;;;;;;;0.63;0.63;;;;;;;4.10;100.00;95617.44;5039154;28;20270;-69
2022/01/31 09:49:21;;;;;;;0.90;0.87;;;;;;;4.38;100.00;95616.31;5039629;28;20336;-69
2022/01/31 09:51:47;;;;;;;1.20;1.10;;;;;;;4.44;100.00;95618.28;5040133;28;20201;-69
2022/01/31 09:54:14;;;;;;;2.23;1.37;;;;;;;4.58;100.00;95622.94;5039086;28;20609;-69
2022/01/31 09:56:44;;;;;;;3.30;1.70;;;;;;;4.77;100.00;95626.09;5039319;28;20503;-69
2022/01/31 09:59:12;;;;;;;2.70;1.57;;;;;;;4.89;100.00;95615.25;5039868;28;20225;-69
2022/01/31 10:01:42;;;;;;;1.20;1.10;;;;;;;5.43;100.00;95599.88;5039390;28;20205;-69
2022/01/31 10:04:14;;;;;;;2.90;0.73;;;;;;;5.26;99.54;95592.19;5038872;28;20367;-68
2022/01/31 10:06:42;;;;;;;1.63;1.23;;;;;;;5.51;100.00;95599.06;5039340;28;20690;-68
2022/01/31 10:09:11;;;;;;;1.37;1.27;;;;;;;5.53;99.71;95594.50;5038861;28;20709;-68
2022/01/31 10:11:46;;;;;;;6.23;1.77;;;;;;;5.56;99.45;95594.16;5035865;28;20231;-68
2022/01/31 10:17:12;;;;;;;1.43;1.03;;;;;;;5.71;100.00;95605.63;5039070;28;20779;-69
2022/01/31 10:19:40;;;;;;;2.73;1.30;;;;;;;5.90;96.92;95606.13;5038725;28;20213;-68
2022/01/31 10:22:09;;;;;;;1.37;1.10;;;;;;;5.58;98.29;95605.28;5038902;28;20296;-68
2022/01/31 10:24:38;;;;;;;5.20;0.60;;;;;;;5.61;97.69;95602.34;5039060;28;20897;-73
2022/01/31 10:27:08;;;;;;;2.00;0.63;;;;;;;5.90;97.88;95600.09;5039282;28;20233;-70
2022/01/31 10:29:36;;;;;;;2.97;0.90;;;;;;;5.69;97.53;95604.94;5039104;28;20201;-71
2022/01/31 10:32:06;;;;;;;2.13;0.90;;;;;;;5.81;96.60;95595.84;5039098;28;20281;-68
2022/01/31 10:34:35;;;;;;;1.03;0.90;;;;;;;5.80;95.23;95607.28;5038926;28;20262;-70
2022/01/31 10:37:12;;;;;;;1.20;0.90;;;;;;;6.13;94.08;95594.81;5039202;28;20201;-70
2022/01/31 10:45:41;;;;;;;0.80;0.70;;;;;;;6.34;91.51;95608.22;5038762;28;20216;-70
2022/01/31 10:53:49;;;;;;;0.30;0.30;;;;;;;5.83;86.81;95612.16;5042120;28;20220;-70
2022/01/31 10:56:17;;;;;;;0.30;0.30;;;;;;;5.75;85.48;95610.38;5042770;28;20748;-70
2022/01/31 10:59:05;;;;;;;0.40;0.40;;;;;;;5.99;83.71;95601.72;5041810;28;20225;-70
2022/01/31 11:01:33;;;;;;;2.80;0.60;;;;;;;5.89;83.79;95601.88;5037542;28;20201;-70
2022/01/31 11:04:04;;;;;;;0.20;0.20;;;;;;;6.01;82.96;95597.13;5043971;28;20197;-71
2022/01/31 11:06:32;;;;;;;0.93;0.77;;;;;;;5.82;81.44;95589.66;5042000;28;20669;-70
2022/01/31 11:09:02;;;;;;;0.30;0.30;;;;;;;6.06;81.94;95588.63;5041508;28;20221;-70
2022/01/31 11:11:30;;;;;;;2.10;0.50;;;;;;;6.04;80.95;95583.75;5039152;28;20232;-70
2022/01/31 11:13:57;;;;;;;1.10;0.70;;;;;;;5.75;78.77;95573.78;5040860;28;20623;-70
2022/01/31 11:16:24;;;;;;;1.33;0.50;;;;;;;6.07;79.41;95571.97;5040612;28;20693;-70
2022/01/31 11:18:55;;;;;;;0.60;0.60;;;;;;;6.21;79.54;95573.91;5041382;28;20225;-70
2022/01/31 11:21:27;;;;;;;0.57;0.43;;;;;;;6.13;79.59;95571.28;5040736;28;20209;-70
2022/01/31 11:24:00;;;;;;;0.97;0.97;;;;;;;6.02;79.29;95576.06;5040184;28;20209;-70
2022/01/31 11:26:28;;;;;;;0.70;0.70;;;;;;;5.98;79.44;95584.41;5041116;28;20229;-71
2022/01/31 11:28:55;;;;;;;0.40;0.40;;;;;;;5.89;79.19;95577.53;5039884;28;20232;-70
2022/01/31 11:31:25;;;;;;;0.57;0.30;;;;;;;5.73;79.21;95582.75;5040884;28;20208;-70
2022/01/31 11:33:56;;;;;;;0.40;0.40;;;;;;;5.78;80.59;95588.31;5040938;28;20205;-70
2022/01/31 11:36:23;;;;;;;0.37;0.37;;;;;;;5.69;82.63;95578.81;5040760;28;20201;-70
2022/01/31 11:38:50;;;;;;;0.40;0.40;;;;;;;5.42;86.21;95576.50;5039683;28;20221;-69
2022/01/31 11:41:17;;;;;;;0.20;0.20;;;;;;;5.29;88.58;95572.75;5040479;28;20212;-70
2022/01/31 11:43:47;;;;;;;0.23;0.23;;;;;;;5.31;90.26;95573.41;5039509;28;20219;-70
2022/01/31 11:46:14;;;;;;;0.50;0.50;;;;;;;5.31;89.99;95566.41;5040886;28;20233;-70
2022/01/31 11:48:40;;;;;;;1.20;0.77;;;;;;;5.17;89.42;95571.44;5039296;28;20229;-70
2022/01/31 11:51:08;;;;;;;0.43;0.43;;;;;;;5.65;88.55;95551.38;5039260;28;20208;-70
2022/01/31 11:53:36;;;;;;;0.93;0.80;;;;;;;5.87;85.75;95543.72;5036086;28;20249;-70
2022/01/31 11:56:07;;;;;;;0.33;0.33;;;;;;;6.00;84.12;95548.47;5037654;28;20197;-70
2022/01/31 11:58:36;;;;;;;0.83;0.60;;;;;;;6.18;83.24;95560.34;5038820;28;20328;-70
2022/01/31 12:01:03;;;;;;;0.40;0.40;;;;;;;6.13;81.08;95541.72;5038361;28;20205;-70